createdAt,value
2023-04-21T00:00:56.501Z,96.2094
2023-04-21T00:01:56.555Z,96.3765
2023-04-21T00:02:56.973Z,96.3793
2023-04-21T00:03:57.661Z,96.3705
2023-04-21T00:04:57.971Z,96.4106
2023-04-21T00:05:58.079Z,96.4567
2023-04-21T00:06:58.064Z,96.5066
2023-04-21T00:07:58.138Z,96.5448
2023-04-21T00:08:58.278Z,96.6563
2023-04-21T00:09:58.326Z,96.7197
2023-04-21T00:10:58.387Z,96.7251
2023-04-21T00:11:58.486Z,96.4631
2023-04-21T00:12:58.549Z,96.5349
2023-04-21T00:13:58.643Z,96.5548
2023-04-21T00:14:58.731Z,96.5540
2023-04-21T00:15:58.857Z,96.6679
2023-04-21T00:16:58.918Z,96.8690
2023-04-21T00:17:59.009Z,97.0425
2023-04-21T00:18:59.108Z,97.0004
2023-04-21T00:19:59.154Z,97.0897
2023-04-21T00:20:59.262Z,97.1062
2023-04-21T00:21:59.383Z,97.1692
2023-04-21T00:22:59.540Z,97.2244
2023-04-21T00:23:59.714Z,97.2407
2023-04-21T00:24:59.812Z,97.2993
2023-04-21T00:25:59.868Z,97.4134
2023-04-21T00:26:59.896Z,97.4542
2023-04-21T00:27:59.937Z,97.4885
2023-04-21T00:28:59.976Z,97.5247
2023-04-21T00:30:00.169Z,97.5462
2023-04-21T00:31:00.372Z,97.5457
2023-04-21T00:32:00.432Z,97.6101
2023-04-21T00:33:00.580Z,97.6695
2023-04-21T00:34:00.719Z,97.7191
2023-04-21T00:35:00.819Z,97.7165
2023-04-21T00:36:00.969Z,97.7448
2023-04-21T00:37:01.114Z,97.7771
2023-04-21T00:38:01.169Z,97.8328
2023-04-21T00:39:01.295Z,97.8879
2023-04-21T00:40:01.406Z,97.9398
2023-04-21T00:41:01.544Z,98.0075
2023-04-21T00:42:01.609Z,98.0417
2023-04-21T00:43:01.760Z,98.1094
2023-04-21T00:44:01.843Z,98.1312
2023-04-21T00:45:02.041Z,98.1439
2023-04-21T00:46:02.098Z,98.1643
2023-04-21T00:48:03.090Z,98.2071
2023-04-21T00:49:03.096Z,98.2356
2023-04-21T00:50:03.254Z,98.2510
2023-04-21T00:51:03.306Z,98.2645
2023-04-21T00:52:03.362Z,98.2652
2023-04-21T00:53:03.614Z,98.2937
2023-04-21T00:54:03.692Z,98.3162
2023-04-21T00:55:03.739Z,98.3404
2023-04-21T00:56:03.849Z,98.3576
2023-04-21T00:57:03.889Z,98.3790
2023-04-21T00:58:04.047Z,98.3971
2023-04-21T00:59:04.196Z,98.4085
2023-04-21T01:00:04.196Z,98.4166
2023-04-21T01:01:04.396Z,98.4367
2023-04-21T01:02:04.770Z,98.4565
2023-04-21T01:03:05.342Z,98.4745
2023-04-21T01:04:06.030Z,98.4703
2023-04-21T01:05:06.336Z,98.4744
2023-04-21T01:06:06.459Z,98.4812
2023-04-21T01:07:06.549Z,98.4886
2023-04-21T01:08:06.581Z,98.4965
2023-04-21T01:09:06.671Z,98.5111
2023-04-21T01:10:06.769Z,98.5139
2023-04-21T01:11:06.849Z,98.5285
2023-04-21T01:12:06.899Z,98.5349
2023-04-21T01:13:07.006Z,98.5451
2023-04-21T01:14:07.069Z,98.5303
2023-04-21T01:15:07.120Z,98.5357
2023-04-21T01:16:07.273Z,98.5357
2023-04-21T01:17:07.316Z,98.5399
2023-04-21T01:18:07.423Z,98.5547
2023-04-21T01:19:07.895Z,98.5523
2023-04-21T01:20:08.201Z,98.5698
2023-04-21T01:21:08.262Z,98.5589
2023-04-21T01:22:08.310Z,98.5610
2023-04-21T01:23:08.399Z,98.5618
2023-04-21T01:24:08.496Z,98.5630
2023-04-21T01:25:08.638Z,98.5589
2023-04-21T01:26:08.709Z,98.5511
2023-04-21T01:27:08.801Z,98.5654
2023-04-21T01:28:08.931Z,98.5486
2023-04-21T01:29:08.974Z,98.5418
2023-04-21T01:30:08.995Z,98.5381
2023-04-21T01:31:09.154Z,98.5390
2023-04-21T01:32:09.342Z,98.5318
2023-04-21T01:33:09.422Z,98.5169
2023-04-21T01:34:09.566Z,98.5174
2023-04-21T01:35:09.605Z,98.5284
2023-04-21T01:36:09.750Z,98.5284
2023-04-21T01:37:09.801Z,98.5329
2023-04-21T01:38:09.919Z,98.5451
2023-04-21T01:39:10.028Z,98.5454
2023-04-21T01:40:10.095Z,98.5516
2023-04-21T01:41:10.191Z,98.5459
2023-04-21T01:42:10.255Z,98.5321
2023-04-21T01:43:10.284Z,98.5134
2023-04-21T01:44:10.399Z,98.4836
2023-04-21T01:45:12.675Z,98.4555
2023-04-21T01:46:12.786Z,98.4483
2023-04-21T01:47:12.868Z,98.4268
2023-04-21T01:48:12.935Z,98.4260
2023-04-21T01:49:12.974Z,98.4084
2023-04-21T01:50:13.032Z,98.3835
2023-04-21T01:51:13.086Z,98.3669
2023-04-21T01:52:13.140Z,98.3231
2023-04-21T01:53:13.224Z,98.3014
2023-04-21T01:54:13.397Z,98.2908
2023-04-21T01:55:13.445Z,98.2783
2023-04-21T01:56:13.551Z,98.2662
2023-04-21T01:57:13.696Z,98.2573
2023-04-21T01:58:13.846Z,98.2066
2023-04-21T01:59:13.866Z,98.1261
2023-04-21T02:00:14.018Z,98.0880
2023-04-21T02:01:14.154Z,98.0384
2023-04-21T02:02:14.396Z,97.9931
2023-04-21T02:03:15.254Z,97.9630
2023-04-21T02:04:15.744Z,97.9685
2023-04-21T02:05:15.866Z,97.9851
2023-04-21T02:06:15.964Z,97.9730
2023-04-21T02:07:16.076Z,97.9637
2023-04-21T02:08:16.117Z,97.9736
2023-04-21T02:09:16.157Z,97.9624
2023-04-21T02:10:16.282Z,97.9324
2023-04-21T02:11:16.369Z,97.9224
2023-04-21T02:12:16.371Z,97.9185
2023-04-21T02:13:16.436Z,97.9181
2023-04-21T02:14:16.489Z,97.9328
2023-04-21T02:15:16.533Z,97.9041
2023-04-21T02:16:16.633Z,97.8893
2023-04-21T02:17:16.692Z,97.9535
2023-04-21T02:18:16.766Z,97.9856
2023-04-21T02:19:17.102Z,97.9823
2023-04-21T02:20:17.406Z,97.9532
2023-04-21T02:21:17.441Z,97.9508
2023-04-21T02:22:18.508Z,97.9378
2023-04-21T02:23:18.576Z,97.9759
2023-04-21T02:24:18.621Z,97.9738
2023-04-21T02:25:19.032Z,97.9066
2023-04-21T02:26:21.210Z,97.8444
2023-04-21T02:27:21.218Z,97.8314
2023-04-21T02:28:21.270Z,97.8444
2023-04-21T02:29:21.892Z,97.8706
2023-04-21T02:30:21.990Z,97.8783
2023-04-21T02:31:22.120Z,97.8839
2023-04-21T02:32:26.573Z,97.8612
2023-04-21T02:33:24.357Z,97.8293
2023-04-21T02:34:24.362Z,97.8018
2023-04-21T02:35:24.362Z,97.7987
2023-04-21T02:36:24.450Z,97.8161
2023-04-21T02:37:24.518Z,97.8314
2023-04-21T02:38:24.557Z,97.8238
2023-04-21T02:39:24.620Z,97.7461
2023-04-21T02:40:24.792Z,97.6731
2023-04-21T02:41:24.874Z,97.7136
2023-04-21T02:42:24.883Z,97.7046
2023-04-21T02:43:24.905Z,97.6728
2023-04-21T02:44:24.945Z,97.6842
2023-04-21T02:45:25.016Z,97.6562
2023-04-21T02:46:25.303Z,97.6062
2023-04-21T02:47:25.480Z,97.5888
2023-04-21T02:48:25.516Z,97.6066
2023-04-21T02:49:25.623Z,97.6050
2023-04-21T02:50:25.660Z,97.5821
2023-04-21T02:51:25.744Z,97.5680
2023-04-21T02:52:25.779Z,97.5238
2023-04-21T02:53:25.882Z,97.4970
2023-04-21T02:54:25.962Z,97.4936
2023-04-21T02:55:25.986Z,97.4821
2023-04-21T02:56:26.039Z,97.4565
2023-04-21T02:57:26.069Z,97.3867
2023-04-21T02:58:26.124Z,97.3107
2023-04-21T02:59:26.162Z,97.2713
2023-04-21T03:00:26.536Z,97.2640
2023-04-21T03:01:26.794Z,97.2929
2023-04-21T03:02:27.892Z,97.3011
2023-04-21T03:03:28.906Z,97.3451
2023-04-21T03:04:29.656Z,97.4116
2023-04-21T03:05:29.730Z,97.4366
2023-04-21T03:06:29.911Z,97.4292
2023-04-21T03:07:30.007Z,97.4174
2023-04-21T03:08:30.126Z,97.4594
2023-04-21T03:09:30.223Z,97.4887
2023-04-21T03:10:30.354Z,97.4870
2023-04-21T03:11:30.512Z,97.5127
2023-04-21T03:12:30.681Z,97.5755
2023-04-21T03:13:30.782Z,97.6422
2023-04-21T03:14:30.851Z,97.6796
2023-04-21T03:15:30.984Z,97.6384
2023-04-21T03:16:31.252Z,97.6627
2023-04-21T03:17:33.941Z,97.6818
2023-04-21T03:18:31.649Z,97.7433
2023-04-21T03:19:31.786Z,97.7880
2023-04-21T03:20:31.895Z,97.8091
2023-04-21T03:21:32.029Z,97.8139
2023-04-21T03:22:32.179Z,97.8084
2023-04-21T03:23:32.329Z,97.8009
2023-04-21T03:24:32.400Z,97.7943
2023-04-21T03:25:32.550Z,97.8075
2023-04-21T03:26:32.631Z,97.8234
2023-04-21T03:27:32.783Z,97.8638
2023-04-21T03:28:32.891Z,97.8183
2023-04-21T03:29:34.021Z,97.8271
2023-04-21T03:30:34.243Z,97.8146
2023-04-21T03:31:34.317Z,97.7959
2023-04-21T03:32:34.544Z,97.7880
2023-04-21T03:33:34.712Z,97.7609
2023-04-21T03:34:34.845Z,97.7980
2023-04-21T03:35:34.937Z,97.8119
2023-04-21T03:36:34.993Z,97.8283
2023-04-21T03:37:35.088Z,97.8014
2023-04-21T03:38:35.320Z,97.7533
2023-04-21T03:39:35.443Z,97.7486
2023-04-21T03:40:35.539Z,97.7112
2023-04-21T03:41:35.651Z,97.6993
2023-04-21T03:42:35.787Z,97.6991
2023-04-21T03:43:35.980Z,97.6948
2023-04-21T03:44:36.049Z,97.6638
2023-04-21T03:45:36.494Z,97.6176
2023-04-21T03:46:36.570Z,97.5779
2023-04-21T03:47:36.764Z,97.5272
2023-04-21T03:48:37.015Z,97.4848
2023-04-21T03:49:37.187Z,97.4672
2023-04-21T03:50:37.288Z,97.4710
2023-04-21T03:51:37.439Z,97.4120
2023-04-21T03:52:37.531Z,97.3749
2023-04-21T03:53:37.641Z,97.3183
2023-04-21T03:54:37.804Z,97.2439
2023-04-21T03:55:37.946Z,97.2244
2023-04-21T03:56:38.072Z,97.2475
2023-04-21T03:57:38.122Z,97.2733
2023-04-21T03:58:38.333Z,97.2062
2023-04-21T03:59:38.463Z,97.1407
2023-04-21T04:00:38.555Z,97.1618
2023-04-21T04:01:44.258Z,97.1923
2023-04-21T04:02:39.924Z,97.1848
2023-04-21T04:03:41.578Z,97.2126
2023-04-21T04:04:42.545Z,97.2256
2023-04-21T04:05:42.937Z,97.2071
2023-04-21T04:06:43.042Z,97.2690
2023-04-21T04:07:43.124Z,97.2993
2023-04-21T04:08:43.284Z,97.2611
2023-04-21T04:09:43.330Z,97.2977
2023-04-21T04:10:43.427Z,97.2718
2023-04-21T04:11:43.553Z,97.1659
2023-04-21T04:12:43.747Z,97.1736
2023-04-21T04:13:43.906Z,97.1135
2023-04-21T04:14:43.986Z,97.0989
2023-04-21T04:15:44.206Z,97.1486
2023-04-21T04:16:44.291Z,97.1914
2023-04-21T04:17:44.383Z,97.1748
2023-04-21T04:18:44.456Z,97.1723
2023-04-21T04:19:44.650Z,97.1673
2023-04-21T04:20:44.738Z,97.1040
2023-04-21T04:21:46.570Z,97.0612
2023-04-21T04:22:45.361Z,96.9174
2023-04-21T04:23:45.549Z,96.9259
2023-04-21T04:24:45.688Z,96.9897
2023-04-21T04:25:45.806Z,96.9819
2023-04-21T04:26:45.881Z,96.9841
2023-04-21T04:27:46.017Z,97.0511
2023-04-21T04:28:46.182Z,97.0470
2023-04-21T04:29:46.358Z,97.0194
2023-04-21T04:30:46.584Z,96.9736
2023-04-21T04:31:46.761Z,96.9450
2023-04-21T04:32:47.076Z,96.9339
2023-04-21T04:33:47.153Z,96.9204
2023-04-21T04:34:47.247Z,96.8840
2023-04-21T04:35:47.358Z,96.9371
2023-04-21T04:36:47.436Z,97.0199
2023-04-21T04:37:47.529Z,96.9773
2023-04-21T04:38:47.659Z,96.9675
2023-04-21T04:39:47.743Z,97.0117
2023-04-21T04:40:47.866Z,96.9653
2023-04-21T04:41:47.949Z,96.9711
2023-04-21T04:42:48.035Z,96.9713
2023-04-21T04:43:48.117Z,96.9733
2023-04-21T04:44:48.243Z,96.9901
2023-04-21T04:45:48.300Z,96.9357
2023-04-21T04:46:48.403Z,96.8682
2023-04-21T04:47:48.728Z,96.9207
2023-04-21T04:48:48.816Z,96.9426
2023-04-21T04:49:48.975Z,96.9028
2023-04-21T04:50:49.032Z,96.9238
2023-04-21T04:51:49.138Z,96.9143
2023-04-21T04:52:49.485Z,96.9588
2023-04-21T04:53:49.680Z,96.9039
2023-04-21T04:54:49.767Z,96.8563
2023-04-21T04:55:49.906Z,96.9210
2023-04-21T04:56:50.034Z,96.9692
2023-04-21T04:57:50.261Z,97.0209
2023-04-21T04:58:50.345Z,97.0570
2023-04-21T04:59:50.442Z,96.9979
2023-04-21T05:00:50.570Z,97.0029
2023-04-21T05:01:50.782Z,96.8713
2023-04-21T05:02:51.182Z,96.7472
2023-04-21T05:03:51.598Z,96.7769
2023-04-21T05:04:52.403Z,96.6152
2023-04-21T05:05:52.577Z,96.5484
2023-04-21T05:06:52.668Z,96.5798
2023-04-21T05:07:52.750Z,96.5015
2023-04-21T05:08:53.087Z,96.4634
2023-04-21T05:09:53.210Z,96.4315
2023-04-21T05:10:53.277Z,96.2123
2023-04-21T05:11:53.328Z,96.1027
2023-04-21T05:12:53.417Z,96.0674
2023-04-21T05:13:53.497Z,96.1005
2023-04-21T05:14:53.637Z,96.1346
2023-04-21T05:15:53.679Z,96.1283
2023-04-21T05:16:53.932Z,96.1169
2023-04-21T05:17:54.045Z,96.1898
2023-04-21T05:18:54.301Z,96.1895
2023-04-21T05:19:54.498Z,96.1716
2023-04-21T05:20:54.588Z,96.2061
2023-04-21T05:21:54.679Z,96.1573
2023-04-21T05:22:54.749Z,96.1186
2023-04-21T05:23:54.838Z,96.1441
2023-04-21T05:24:54.928Z,96.2207
2023-04-21T05:25:55.046Z,96.2861
2023-04-21T05:26:55.188Z,96.3305
2023-04-21T05:27:55.301Z,96.2906
2023-04-21T05:28:55.358Z,96.2702
2023-04-21T05:29:55.475Z,96.2856
2023-04-21T05:30:55.579Z,96.1786
2023-04-21T05:31:55.671Z,96.0025
2023-04-21T05:32:55.941Z,95.7302
2023-04-21T05:33:56.048Z,95.5990
2023-04-21T05:34:56.191Z,95.4793
2023-04-21T05:35:56.341Z,95.4983
2023-04-21T05:36:56.409Z,95.6182
2023-04-21T05:37:56.514Z,95.8674
2023-04-21T05:38:56.595Z,95.9507
2023-04-21T05:39:56.719Z,95.8901
2023-04-21T05:40:56.826Z,95.8476
2023-04-21T05:41:56.908Z,95.6913
2023-04-21T05:42:57.028Z,95.6755
2023-04-21T05:43:57.109Z,95.6720
2023-04-21T05:44:57.318Z,95.7054
2023-04-21T05:45:57.550Z,95.7233
2023-04-21T05:46:57.674Z,95.8906
2023-04-21T05:47:57.827Z,95.5504
2023-04-21T05:48:57.880Z,95.2875
2023-04-21T05:49:58.016Z,95.3566
2023-04-21T05:50:58.052Z,95.0280
2023-04-21T05:51:58.238Z,94.6298
2023-04-21T05:52:58.336Z,94.8182
2023-04-21T05:53:58.448Z,94.8069
2023-04-21T05:54:58.557Z,94.6897
2023-04-21T05:55:58.634Z,94.6144
2023-04-21T05:56:58.834Z,94.6787
2023-04-21T05:57:58.882Z,94.7783
2023-04-21T05:58:58.988Z,94.7809
2023-04-21T05:59:59.017Z,94.7392
2023-04-21T06:00:59.159Z,94.9844
2023-04-21T06:01:59.298Z,94.8359
2023-04-21T06:03:00.087Z,94.6175
2023-04-21T06:04:01.138Z,94.5191
2023-04-21T06:05:02.318Z,94.7002
2023-04-21T06:06:02.849Z,94.4369
2023-04-21T06:07:03.039Z,94.6352
2023-04-21T06:08:03.134Z,94.7090
2023-04-21T06:09:03.228Z,94.7204
2023-04-21T06:10:03.332Z,94.8019
2023-04-21T06:11:03.377Z,94.6673
2023-04-21T06:12:03.483Z,94.7180
2023-04-21T06:13:03.587Z,94.7457
2023-04-21T06:14:03.673Z,94.7413
2023-04-21T06:15:03.773Z,94.6721
2023-04-21T06:16:03.867Z,94.5444
2023-04-21T06:17:03.984Z,94.5115
2023-04-21T06:18:04.103Z,94.6334
2023-04-21T06:19:04.192Z,94.6858
2023-04-21T06:20:04.245Z,94.7417
2023-04-21T06:21:04.394Z,94.8515
2023-04-21T06:22:04.420Z,95.0439
2023-04-21T06:23:04.542Z,95.1594
2023-04-21T06:24:04.601Z,95.2325
2023-04-21T06:25:04.680Z,95.2487
2023-04-21T06:26:04.818Z,95.3548
2023-04-21T06:27:04.893Z,95.4296
2023-04-21T06:28:05.009Z,95.5344
2023-04-21T06:29:05.037Z,95.6600
2023-04-21T06:30:05.122Z,95.6708
2023-04-21T06:31:09.558Z,95.6843
2023-04-21T06:32:07.569Z,95.6644
2023-04-21T06:33:07.801Z,95.5848
2023-04-21T06:34:07.913Z,95.5991
2023-04-21T06:35:07.999Z,95.2690
2023-04-21T06:36:08.175Z,95.0965
2023-04-21T06:37:08.292Z,95.1688
2023-04-21T06:38:08.388Z,95.2035
2023-04-21T06:39:08.480Z,95.1524
2023-04-21T06:40:08.573Z,95.0322
2023-04-21T06:41:08.626Z,94.9018
2023-04-21T06:42:08.706Z,94.5019
2023-04-21T06:43:08.765Z,94.2328
2023-04-21T06:44:08.899Z,94.1896
2023-04-21T06:45:09.000Z,94.1076
2023-04-21T06:46:09.116Z,94.1060
2023-04-21T06:47:09.283Z,94.0628
2023-04-21T06:48:09.427Z,93.9902
2023-04-21T06:49:09.516Z,93.9214
2023-04-21T06:50:09.545Z,93.8001
2023-04-21T06:51:09.637Z,93.7196
2023-04-21T06:52:09.697Z,93.9976
2023-04-21T06:53:09.757Z,94.1542
2023-04-21T06:54:09.788Z,94.3429
2023-04-21T06:55:09.875Z,94.2480
2023-04-21T06:56:09.904Z,93.9363
2023-04-21T06:57:09.993Z,93.8459
2023-04-21T06:58:10.070Z,93.6637
2023-04-21T06:59:10.172Z,93.3473
2023-04-21T07:00:11.347Z,93.4605
2023-04-21T07:01:11.600Z,93.4911
2023-04-21T07:02:11.804Z,93.4799
2023-04-21T07:03:12.122Z,93.5327
2023-04-21T07:04:12.597Z,93.3554
2023-04-21T07:05:12.704Z,93.2727
2023-04-21T07:06:12.737Z,93.1358
2023-04-21T07:07:12.846Z,92.7761
2023-04-21T07:08:12.907Z,92.2940
2023-04-21T07:09:13.031Z,92.1671
2023-04-21T07:10:13.071Z,92.4155
2023-04-21T07:11:13.137Z,92.5798
2023-04-21T07:12:13.198Z,92.1026
2023-04-21T07:13:13.229Z,91.8352
2023-04-21T07:14:13.305Z,91.7294
2023-04-21T07:15:13.410Z,91.9593
2023-04-21T07:16:13.483Z,91.9216
2023-04-21T07:17:13.698Z,91.6035
2023-04-21T07:18:13.815Z,91.3199
2023-04-21T07:19:13.864Z,91.2432
2023-04-21T07:20:13.956Z,91.3458
2023-04-21T07:21:14.092Z,91.5812
2023-04-21T07:22:14.144Z,91.5664
2023-04-21T07:23:14.210Z,91.6482
2023-04-21T07:24:14.303Z,91.9364
2023-04-21T07:25:14.402Z,92.0956
2023-04-21T07:26:14.492Z,91.9665
2023-04-21T07:27:14.580Z,91.7144
2023-04-21T07:28:14.667Z,91.3493
2023-04-21T07:29:14.761Z,91.4125
2023-04-21T07:30:14.856Z,91.1827
2023-04-21T07:31:15.131Z,91.1857
2023-04-21T07:32:15.278Z,91.0934
2023-04-21T07:33:15.380Z,90.9298
2023-04-21T07:34:15.466Z,90.7820
2023-04-21T07:35:15.604Z,90.5204
2023-04-21T07:36:15.705Z,91.0522
2023-04-21T07:37:15.801Z,90.9590
2023-04-21T07:38:15.904Z,90.7007
2023-04-21T07:39:15.994Z,90.6260
2023-04-21T07:40:16.214Z,90.4491
2023-04-21T07:41:16.308Z,90.5617
2023-04-21T07:42:16.490Z,90.5619
2023-04-21T07:43:16.654Z,90.5827
2023-04-21T07:44:16.786Z,90.5849
2023-04-21T07:45:16.919Z,89.8800
2023-04-21T07:46:17.135Z,89.5716
2023-04-21T07:47:17.299Z,90.6871
2023-04-21T07:48:17.679Z,91.5571
2023-04-21T07:49:18.444Z,92.0886
2023-04-21T07:50:18.983Z,92.2511
2023-04-21T07:51:19.157Z,92.4840
2023-04-21T07:52:19.273Z,92.4579
2023-04-21T07:53:19.446Z,92.2355
2023-04-21T07:54:19.497Z,92.4135
2023-04-21T07:55:19.650Z,92.4293
2023-04-21T07:56:19.715Z,91.9022
2023-04-21T07:57:19.820Z,90.7597
2023-04-21T07:58:19.913Z,90.2330
2023-04-21T07:59:20.564Z,90.0667
2023-04-21T08:00:20.839Z,90.0925
2023-04-21T08:01:20.996Z,90.1956
2023-04-21T08:02:21.265Z,90.4072
2023-04-21T08:03:25.102Z,90.7628
2023-04-21T08:04:24.431Z,90.8922
2023-04-21T08:05:32.470Z,90.5369
2023-04-21T08:06:25.859Z,90.3450
2023-04-21T08:07:26.008Z,90.3976
2023-04-21T08:08:26.116Z,90.3849
2023-04-21T08:09:26.191Z,90.4802
2023-04-21T08:10:26.246Z,90.3059
2023-04-21T08:11:26.315Z,89.5956
2023-04-21T08:12:26.431Z,89.3167
2023-04-21T08:13:26.527Z,89.6521
2023-04-21T08:14:26.705Z,89.3532
2023-04-21T08:15:26.799Z,89.3001
2023-04-21T08:16:26.951Z,89.3544
2023-04-21T08:17:27.111Z,89.5743
2023-04-21T08:18:27.145Z,89.5156
2023-04-21T08:19:27.232Z,89.2904
2023-04-21T08:20:27.354Z,89.5755
2023-04-21T08:21:31.474Z,89.3978
2023-04-21T08:22:29.473Z,89.4381
2023-04-21T08:23:32.673Z,89.7605
2023-04-21T08:24:30.362Z,89.6101
2023-04-21T08:25:30.469Z,89.6673
2023-04-21T08:26:30.749Z,89.5814
2023-04-21T08:27:30.935Z,88.8579
2023-04-21T08:28:31.197Z,88.7974
2023-04-21T08:29:31.247Z,88.8663
2023-04-21T08:30:31.329Z,89.2405
2023-04-21T08:31:31.728Z,89.2468
2023-04-21T08:32:32.179Z,88.6267
2023-04-21T08:33:32.287Z,88.5121
2023-04-21T08:34:32.421Z,88.3667
2023-04-21T08:35:32.551Z,88.7809
2023-04-21T08:36:32.668Z,89.1814
2023-04-21T08:37:32.782Z,89.3935
2023-04-21T08:38:32.887Z,89.8669
2023-04-21T08:39:32.966Z,89.8102
2023-04-21T08:40:33.018Z,89.8322
2023-04-21T08:41:33.084Z,89.8672
2023-04-21T08:42:33.195Z,89.8182
2023-04-21T08:43:33.310Z,89.2787
2023-04-21T08:44:33.353Z,88.7499
2023-04-21T08:45:33.475Z,88.3867
2023-04-21T08:46:33.556Z,88.2994
2023-04-21T08:47:33.940Z,87.9565
2023-04-21T08:48:33.974Z,87.6580
2023-04-21T08:49:34.115Z,87.7649
2023-04-21T08:50:34.185Z,87.9501
2023-04-21T08:51:34.300Z,87.3730
2023-04-21T08:52:34.358Z,87.2128
2023-04-21T08:53:34.491Z,86.3636
2023-04-21T08:54:34.574Z,85.9758
2023-04-21T08:55:34.692Z,86.9210
2023-04-21T08:56:34.762Z,87.5447
2023-04-21T08:57:34.875Z,86.5594
2023-04-21T08:58:34.962Z,86.4398
2023-04-21T08:59:34.983Z,86.6134
2023-04-21T09:00:35.064Z,86.7909
2023-04-21T09:01:35.240Z,86.9943
2023-04-21T09:02:35.579Z,87.1391
2023-04-21T09:03:36.072Z,87.6215
2023-04-21T09:04:37.090Z,88.2426
2023-04-21T09:05:43.487Z,88.2188
2023-04-21T09:06:39.266Z,88.3492
2023-04-21T09:07:39.392Z,88.7181
2023-04-21T09:08:39.393Z,88.1965
2023-04-21T09:09:39.459Z,87.8712
2023-04-21T09:10:39.535Z,87.8390
2023-04-21T09:11:39.587Z,87.9736
2023-04-21T09:12:39.701Z,88.1768
2023-04-21T09:13:39.759Z,87.7849
2023-04-21T09:14:40.298Z,87.6658
2023-04-21T09:15:40.685Z,87.8042
2023-04-21T09:16:40.842Z,87.0010
2023-04-21T09:17:41.009Z,86.4589
2023-04-21T09:18:41.157Z,86.3774
2023-04-21T09:19:41.198Z,86.5763
2023-04-21T09:20:41.264Z,86.2671
2023-04-21T09:21:41.313Z,86.8410
2023-04-21T09:22:41.470Z,87.0295
2023-04-21T09:23:41.520Z,86.7583
2023-04-21T09:24:42.601Z,86.9126
2023-04-21T09:25:42.719Z,86.2287
2023-04-21T09:26:42.788Z,86.1244
2023-04-21T09:27:42.850Z,86.3387
2023-04-21T09:28:43.111Z,86.4170
2023-04-21T09:29:43.159Z,86.3597
2023-04-21T09:30:43.337Z,85.2987
2023-04-21T09:31:43.479Z,84.4843
2023-04-21T09:32:43.789Z,83.4002
2023-04-21T09:33:57.135Z,83.6140
2023-04-21T09:34:43.866Z,83.6612
2023-04-21T09:35:43.889Z,83.3321
2023-04-21T09:36:43.955Z,83.7686
2023-04-21T09:37:44.009Z,84.6353
2023-04-21T09:38:46.121Z,84.7583
2023-04-21T09:40:03.592Z,85.0985
2023-04-21T09:40:46.070Z,85.2578
2023-04-21T09:41:46.095Z,85.3953
2023-04-21T09:42:46.189Z,85.3105
2023-04-21T09:43:46.331Z,85.2743
2023-04-21T09:44:58.151Z,85.7467
2023-04-21T09:45:46.386Z,85.9396
2023-04-21T09:46:46.575Z,86.0453
2023-04-21T09:47:46.853Z,86.2166
2023-04-21T09:48:46.976Z,85.7406
2023-04-21T09:49:47.040Z,85.2296
2023-04-21T09:52:14.290Z,85.4951
2023-04-21T09:52:48.217Z,85.2554
2023-04-21T09:53:49.720Z,85.0402
2023-04-21T09:54:49.799Z,84.0682
2023-04-21T09:55:49.879Z,84.1978
2023-04-21T09:56:49.933Z,84.5828
2023-04-21T09:57:50.022Z,84.6066
2023-04-21T09:58:50.119Z,84.3693
2023-04-21T09:59:50.150Z,84.8634
2023-04-21T10:00:50.273Z,84.6087
2023-04-21T10:01:50.430Z,84.9836
2023-04-21T10:02:50.790Z,84.7954
2023-04-21T10:03:51.613Z,84.3145
2023-04-21T10:04:52.338Z,83.1175
2023-04-21T10:05:52.814Z,82.2907
2023-04-21T10:06:52.895Z,81.8034
2023-04-21T10:07:52.987Z,82.8279
2023-04-21T10:08:53.045Z,82.9753
2023-04-21T10:09:53.318Z,82.9402
2023-04-21T10:10:53.538Z,82.3389
2023-04-21T10:11:53.640Z,82.2867
2023-04-21T10:12:53.748Z,82.2159
2023-04-21T10:13:53.798Z,81.2259
2023-04-21T10:14:53.891Z,80.7531
2023-04-21T10:15:54.006Z,80.2211
2023-04-21T10:16:54.028Z,79.5440
2023-04-21T10:17:54.127Z,79.7587
2023-04-21T10:18:54.151Z,80.7055
2023-04-21T10:19:54.186Z,81.2405
2023-04-21T10:20:54.235Z,81.2690
2023-04-21T10:21:54.264Z,81.0347
2023-04-21T10:22:54.358Z,81.4561
2023-04-21T10:23:54.438Z,81.4387
2023-04-21T10:24:54.539Z,81.0806
2023-04-21T10:25:54.562Z,80.9024
2023-04-21T10:26:55.619Z,80.3867
2023-04-21T10:27:55.682Z,79.8440
2023-04-21T10:28:55.747Z,79.3328
2023-04-21T10:29:57.455Z,79.4217
2023-04-21T10:30:57.549Z,79.0634
2023-04-21T10:31:57.698Z,78.7937
2023-04-21T10:32:57.883Z,79.2189
2023-04-21T10:33:57.962Z,78.9364
2023-04-21T10:34:58.040Z,78.4624
2023-04-21T10:35:58.123Z,78.5157
2023-04-21T10:36:58.177Z,78.3091
2023-04-21T10:37:58.226Z,77.8629
2023-04-21T10:38:58.293Z,77.6852
2023-04-21T10:39:58.370Z,77.5918
2023-04-21T10:40:58.677Z,77.8012
2023-04-21T10:41:58.754Z,77.6509
2023-04-21T10:42:58.807Z,77.4420
2023-04-21T10:43:58.932Z,77.7053
2023-04-21T10:44:58.974Z,77.7364
2023-04-21T10:45:59.040Z,77.1641
2023-04-21T10:46:59.175Z,76.9928
2023-04-21T10:47:59.235Z,76.6198
2023-04-21T10:48:59.307Z,76.0897
2023-04-21T10:49:59.377Z,76.2218
2023-04-21T10:50:59.431Z,76.1900
2023-04-21T10:51:59.556Z,75.3492
2023-04-21T10:52:59.641Z,74.6003
2023-04-21T10:53:59.753Z,74.9524
2023-04-21T10:54:59.808Z,75.2206
2023-04-21T10:55:59.855Z,75.5854
2023-04-21T10:56:59.887Z,75.6302
2023-04-21T10:57:59.937Z,75.3251
2023-04-21T10:59:00.003Z,74.3774
2023-04-21T11:00:00.059Z,74.2127
2023-04-21T11:01:00.136Z,74.2172
2023-04-21T11:02:00.558Z,74.2204
2023-04-21T11:03:01.249Z,73.8413
2023-04-21T11:04:02.093Z,73.5113
2023-04-21T11:05:02.768Z,73.2595
2023-04-21T11:06:02.790Z,73.1932
2023-04-21T11:07:02.787Z,72.9505
2023-04-21T11:08:02.847Z,72.5952
2023-04-21T11:09:02.949Z,72.1964
2023-04-21T11:10:02.944Z,72.1429
2023-04-21T11:11:02.965Z,72.5066
2023-04-21T11:12:02.936Z,71.3061
2023-04-21T11:13:02.907Z,70.8829
2023-04-21T11:14:02.994Z,72.6887
2023-04-21T11:15:03.038Z,73.5440
2023-04-21T11:16:03.056Z,73.0805
2023-04-21T11:17:03.264Z,73.0750
2023-04-21T11:18:03.339Z,72.0723
2023-04-21T11:19:03.350Z,71.1821
2023-04-21T11:20:03.375Z,70.6729
2023-04-21T11:21:03.344Z,70.5858
2023-04-21T11:22:03.348Z,70.7243
2023-04-21T11:23:03.297Z,69.9864
2023-04-21T11:24:03.504Z,69.5794
2023-04-21T11:25:03.675Z,70.3000
2023-04-21T11:26:03.734Z,69.4876
2023-04-21T11:27:03.736Z,68.4825
2023-04-21T11:28:03.723Z,68.7333
2023-04-21T11:29:03.782Z,68.5920
2023-04-21T11:30:03.728Z,69.5628
2023-04-21T11:31:03.695Z,70.3983
2023-04-21T11:32:03.694Z,70.9330
2023-04-21T11:33:03.745Z,71.3079
2023-04-21T11:34:03.720Z,71.0187
2023-04-21T11:35:03.687Z,71.1524
2023-04-21T11:36:03.701Z,71.5632
2023-04-21T11:37:03.645Z,71.2178
2023-04-21T11:38:03.675Z,71.0402
2023-04-21T11:39:03.638Z,71.2997
2023-04-21T11:40:03.636Z,71.8684
2023-04-21T11:41:03.620Z,72.1880
2023-04-21T11:42:03.613Z,72.7335
2023-04-21T11:43:03.569Z,72.4643
2023-04-21T11:44:03.545Z,72.6838
2023-04-21T11:45:03.573Z,72.1242
2023-04-21T11:46:03.561Z,72.2622
2023-04-21T11:47:03.528Z,72.1069
2023-04-21T11:48:03.655Z,72.1376
2023-04-21T11:49:03.629Z,72.1191
2023-04-21T11:50:03.650Z,71.8716
2023-04-21T11:51:03.637Z,71.9465
2023-04-21T11:52:03.613Z,72.3690
2023-04-21T11:53:03.673Z,72.5950
2023-04-21T11:54:03.663Z,72.6574
2023-04-21T11:55:03.665Z,73.0941
2023-04-21T11:56:03.705Z,73.2808
2023-04-21T11:57:03.661Z,73.2924
2023-04-21T11:58:03.694Z,73.6773
2023-04-21T11:59:03.694Z,73.4132
2023-04-21T12:00:03.748Z,73.3317
2023-04-21T12:01:03.733Z,72.9862
2023-04-21T12:02:03.873Z,72.7803
2023-04-21T12:03:04.269Z,72.1493
2023-04-21T12:04:05.093Z,72.0057
2023-04-21T12:05:05.888Z,72.2555
2023-04-21T12:06:06.119Z,71.7587
2023-04-21T12:07:06.356Z,73.0697
2023-04-21T12:08:06.421Z,72.4907
2023-04-21T12:09:06.464Z,72.6497
2023-04-21T12:10:06.568Z,72.4520